Time,TemperatureF,DewpointF,PressureIn,WindDirection,WindDirectionDegrees,WindSpeedMPH,WindSpeedGustMPH,Humidity,HourlyPrecipIn,Conditions,Clouds,dailyrainin,SoftwareType,DateUTC
2013-02-23 00:01:00,16.9,14.0,29.90,West,273,2.0,10.0,88,0.00,,,0.00,Wunderground v.1.15,2013-02-23 06:01:00,
2013-02-23 00:07:00,16.7,13.8,29.90,NW,309,2.0,10.0,88,0.00,,,0.00,Wunderground v.1.15,2013-02-23 06:07:00,
2013-02-23 00:13:00,16.4,13.5,29.90,WNW,301,2.0,10.0,88,0.00,,,0.00,Wunderground v.1.15,2013-02-23 06:13:00,
2013-02-23 00:20:00,16.3,13.4,29.90,West,281,2.0,10.0,88,0.00,,,0.00,Wunderground v.1.15,2013-02-23 06:20:00,
2013-02-23 00:25:00,16.2,13.5,29.90,SW,233,2.0,10.0,89,0.00,,,0.00,Wunderground v.1.15,2013-02-23 06:25:00,
2013-02-23 00:31:00,16.2,13.5,29.90,NW,304,2.0,10.0,89,0.00,,,0.00,Wunderground v.1.15,2013-02-23 06:31:00,
2013-02-23 00:37:00,16.0,13.3,29.90,WNW,302,2.0,10.0,89,0.00,,,0.00,Wunderground v.1.15,2013-02-23 06:37:00,
2013-02-23 00:43:00,15.8,13.1,29.90,West,270,2.0,10.0,89,0.00,,,0.00,Wunderground v.1.15,2013-02-23 06:43:00,
2013-02-23 00:50:00,15.5,12.8,29.90,WNW,292,1.0,10.0,89,0.00,,,0.00,Wunderground v.1.15,2013-02-23 06:50:00,
2013-02-23 00:55:00,15.4,12.7,29.90,WSW,257,2.0,10.0,89,0.00,,,0.00,Wunderground v.1.15,2013-02-23 06:55:00,
2013-02-23 01:01:00,15.1,12.4,29.90,WNW,290,2.0,10.0,89,0.00,,,0.00,Wunderground v.1.15,2013-02-23 07:01:00,
2013-02-23 01:08:00,14.8,12.1,29.90,WNW,290,2.0,10.0,89,0.00,,,0.00,Wunderground v.1.15,2013-02-23 07:08:00,
2013-02-23 01:13:00,14.7,12.0,29.90,WSW,253,2.0,10.0,89,0.00,,,0.00,Wunderground v.1.15,2013-02-23 07:13:00,
2013-02-23 01:19:00,14.5,12.1,29.91,WNW,297,1.0,10.0,90,0.00,,,0.00,Wunderground v.1.15,2013-02-23 07:19:00,
2013-02-23 01:26:00,14.5,12.1,29.91,WNW,295,2.0,10.0,90,0.00,,,0.00,Wunderground v.1.15,2013-02-23 07:26:00,
2013-02-23 01:31:00,14.4,12.0,29.91,WNW,295,2.0,10.0,90,0.00,,,0.00,Wunderground v.1.15,2013-02-23 07:31:00,
2013-02-23 01:37:00,14.4,12.0,29.91,WSW,242,2.0,10.0,90,0.00,,,0.00,Wunderground v.1.15,2013-02-23 07:37:00,
2013-02-23 01:44:00,14.4,12.0,29.91,West,271,2.0,10.0,90,0.00,,,0.00,Wunderground v.1.15,2013-02-23 07:44:00,
2013-02-23 01:49:00,14.4,12.0,29.91,WNW,295,2.0,2.0,90,0.00,,,0.00,Wunderground v.1.15,2013-02-23 07:49:00,
2013-02-23 01:55:00,14.5,12.1,29.91,West,269,1.0,10.0,90,0.00,,,0.00,Wunderground v.1.15,2013-02-23 07:55:00,
2013-02-23 02:01:00,14.7,12.3,29.90,WSW,253,2.0,3.0,90,0.00,,,0.00,Wunderground v.1.15,2013-02-23 08:01:00,
2013-02-23 02:07:00,14.9,12.5,29.91,WNW,289,2.0,10.0,90,0.00,,,0.00,Wunderground v.1.15,2013-02-23 08:07:00,
2013-02-23 02:13:00,15.0,12.6,29.91,NW,304,2.0,10.0,90,0.00,,,0.00,Wunderground v.1.15,2013-02-23 08:13:00,
2013-02-23 02:19:00,15.2,12.8,29.90,West,277,2.0,10.0,90,0.00,,,0.00,Wunderground v.1.15,2013-02-23 08:19:00,
2013-02-23 02:25:00,15.4,13.0,29.90,WSW,252,2.0,10.0,90,0.00,,,0.00,Wunderground v.1.15,2013-02-23 08:25:00,
2013-02-23 02:31:00,15.5,12.8,29.90,WNW,295,2.0,10.0,89,0.00,,,0.00,Wunderground v.1.15,2013-02-23 08:31:00,
2013-02-23 02:37:00,15.7,13.0,29.90,West,280,1.0,10.0,89,0.00,,,0.00,Wunderground v.1.15,2013-02-23 08:37:00,
2013-02-23 02:43:00,15.9,13.2,29.90,WNW,289,1.0,10.0,89,0.00,,,0.00,Wunderground v.1.15,2013-02-23 08:43:00,
2013-02-23 02:49:00,16.2,13.5,29.90,West,280,2.0,2.0,89,0.00,,,0.00,Wunderground v.1.15,2013-02-23 08:49:00,
2013-02-23 02:55:00,16.4,13.7,29.90,West,281,2.0,10.0,89,0.00,,,0.00,Wunderground v.1.15,2013-02-23 08:55:00,
2013-02-23 03:01:00,16.5,13.8,29.90,SW,234,2.0,10.0,89,0.00,,,0.00,Wunderground v.1.15,2013-02-23 09:01:00,
2013-02-23 03:08:00,16.7,14.0,29.90,WSW,242,1.0,10.0,89,0.00,,,0.00,Wunderground v.1.15,2013-02-23 09:08:00,
2013-02-23 03:13:00,16.8,14.1,29.90,WNW,290,1.0,10.0,89,0.00,,,0.00,Wunderground v.1.15,2013-02-23 09:13:00,
2013-02-23 03:19:00,16.9,14.2,29.90,West,267,2.0,2.0,89,0.00,,,0.00,Wunderground v.1.15,2013-02-23 09:19:00,
2013-02-23 03:25:00,17.0,14.3,29.90,NW,316,2.0,10.0,89,0.00,,,0.00,Wunderground v.1.15,2013-02-23 09:25:00,
2013-02-23 03:31:00,17.1,14.4,29.90,West,281,2.0,10.0,89,0.00,,,0.00,Wunderground v.1.15,2013-02-23 09:31:00,
2013-02-23 03:37:00,17.3,14.6,29.89,West,262,1.0,10.0,89,0.00,,,0.00,Wunderground v.1.15,2013-02-23 09:37:00,
2013-02-23 03:43:00,17.4,14.7,29.89,NW,307,2.0,10.0,89,0.00,,,0.00,Wunderground v.1.15,2013-02-23 09:43:00,
2013-02-23 03:49:00,17.5,14.8,29.89,WNW,295,2.0,2.0,89,0.00,,,0.00,Wunderground v.1.15,2013-02-23 09:49:00,
2013-02-23 03:56:00,17.7,15.0,29.89,West,277,1.0,10.0,89,0.00,,,0.00,Wunderground v.1.15,2013-02-23 09:56:00,
2013-02-23 04:01:00,17.8,15.1,29.89,West,263,1.0,10.0,89,0.00,,,0.00,Wunderground v.1.15,2013-02-23 10:01:00,
2013-02-23 04:08:00,17.8,15.1,29.89,WSW,249,1.0,10.0,89,0.00,,,0.00,Wunderground v.1.15,2013-02-23 10:08:00,
2013-02-23 04:13:00,17.8,15.1,29.89,WSW,249,1.0,10.0,89,0.00,,,0.00,Wunderground v.1.15,2013-02-23 10:13:00,
2013-02-23 04:19:00,17.9,15.2,29.89,West,275,1.0,10.0,89,0.00,,,0.00,Wunderground v.1.15,2013-02-23 10:19:00,
2013-02-23 04:26:00,18.0,15.3,29.89,WSW,249,1.0,10.0,89,0.00,,,0.00,Wunderground v.1.15,2013-02-23 10:26:00,
2013-02-23 04:31:00,18.1,15.4,29.89,WNW,282,1.0,10.0,89,0.00,,,0.00,Wunderground v.1.15,2013-02-23 10:31:00,
2013-02-23 04:37:00,18.2,15.5,29.88,WNW,283,2.0,10.0,89,0.00,,,0.00,Wunderground v.1.15,2013-02-23 10:37:00,
2013-02-23 04:43:00,18.3,15.6,29.89,WNW,295,2.0,10.0,89,0.00,,,0.00,Wunderground v.1.15,2013-02-23 10:43:00,
2013-02-23 04:49:00,18.5,15.5,29.88,West,260,1.0,1.0,88,0.00,,,0.00,Wunderground v.1.15,2013-02-23 10:49:00,
2013-02-23 04:56:00,18.6,15.6,29.88,West,274,1.0,10.0,88,0.00,,,0.00,Wunderground v.1.15,2013-02-23 10:56:00,
2013-02-23 05:02:00,18.7,15.7,29.89,SW,232,1.0,10.0,88,0.00,,,0.00,Wunderground v.1.15,2013-02-23 11:02:00,
2013-02-23 05:07:00,18.7,15.7,29.89,West,277,2.0,10.0,88,0.00,,,0.00,Wunderground v.1.15,2013-02-23 11:07:00,
2013-02-23 05:14:00,18.7,15.7,29.89,WSW,245,1.0,10.0,88,0.00,,,0.00,Wunderground v.1.15,2013-02-23 11:14:00,
2013-02-23 05:19:00,18.7,15.7,29.89,WSW,252,2.0,2.0,88,0.00,,,0.00,Wunderground v.1.15,2013-02-23 11:19:00,
2013-02-23 05:25:00,18.6,15.6,29.89,West,262,2.0,10.0,88,0.00,,,0.00,Wunderground v.1.15,2013-02-23 11:25:00,
2013-02-23 05:31:00,18.5,15.8,29.89,WSW,245,2.0,10.0,89,0.00,,,0.00,Wunderground v.1.15,2013-02-23 11:31:00,
2013-02-23 05:37:00,18.4,15.7,29.90,West,264,3.0,10.0,89,0.00,,,0.00,Wunderground v.1.15,2013-02-23 11:37:00,
2013-02-23 05:44:00,18.3,15.6,29.90,WNW,284,2.0,10.0,89,0.00,,,0.00,Wunderground v.1.15,2013-02-23 11:44:00,
2013-02-23 05:49:00,18.3,15.6,29.90,West,261,2.0,2.0,89,0.00,,,0.00,Wunderground v.1.15,2013-02-23 11:49:00,
2013-02-23 05:55:00,18.2,15.5,29.90,West,269,2.0,10.0,89,0.00,,,0.00,Wunderground v.1.15,2013-02-23 11:55:00,
2013-02-23 06:01:00,18.0,15.0,29.90,WSW,248,3.0,10.0,88,0.00,,,0.00,Wunderground v.1.15,2013-02-23 12:01:00,
2013-02-23 06:07:00,17.7,14.8,29.90,West,268,4.0,10.0,88,0.00,,,0.00,Wunderground v.1.15,2013-02-23 12:07:00,
2013-02-23 06:13:00,17.3,14.4,29.90,West,260,4.0,10.0,88,0.00,,,0.00,Wunderground v.1.15,2013-02-23 12:13:00,
2013-02-23 06:19:00,16.8,13.9,29.90,SW,236,4.0,4.0,88,0.00,,,0.00,Wunderground v.1.15,2013-02-23 12:19:00,
2013-02-23 06:25:00,16.3,13.4,29.90,NNW,346,4.0,10.0,88,0.00,,,0.00,Wunderground v.1.15,2013-02-23 12:25:00,
2013-02-23 06:32:00,15.8,13.1,29.90,West,259,5.0,10.0,89,0.00,,,0.00,Wunderground v.1.15,2013-02-23 12:32:00,
2013-02-23 06:37:00,15.5,12.8,29.90,WNW,283,4.0,10.0,89,0.00,,,0.00,Wunderground v.1.15,2013-02-23 12:37:00,
2013-02-23 06:43:00,15.2,12.5,29.90,WSW,252,4.0,10.0,89,0.00,,,0.00,Wunderground v.1.15,2013-02-23 12:43:00,
2013-02-23 06:49:00,15.1,12.7,29.91,WSW,248,3.0,3.0,90,0.00,,,0.00,Wunderground v.1.15,2013-02-23 12:49:00,
2013-02-23 06:55:00,14.9,12.5,29.91,WSW,248,3.0,10.0,90,0.00,,,0.00,Wunderground v.1.15,2013-02-23 12:55:00,
2013-02-23 07:01:00,14.8,12.4,29.91,West,271,3.0,10.0,90,0.00,,,0.00,Wunderground v.1.15,2013-02-23 13:01:00,
2013-02-23 07:07:00,14.7,12.3,29.91,West,262,3.0,10.0,90,0.00,,,0.00,Wunderground v.1.15,2013-02-23 13:07:00,
2013-02-23 07:13:00,14.9,12.7,29.91,West,262,2.0,10.0,91,0.00,,,0.00,Wunderground v.1.15,2013-02-23 13:13:00,
2013-02-23 07:19:00,15.1,12.9,29.91,West,259,3.0,10.0,91,0.00,,,0.00,Wunderground v.1.15,2013-02-23 13:19:00,
2013-02-23 07:25:00,15.3,13.1,29.91,WSW,248,2.0,10.0,91,0.00,,,0.00,Wunderground v.1.15,2013-02-23 13:25:00,
2013-02-23 07:31:00,15.4,13.0,29.91,WSW,255,3.0,11.0,90,0.00,,,0.00,Wunderground v.1.15,2013-02-23 13:31:00,
2013-02-23 07:37:00,15.4,12.7,29.91,West,277,4.0,11.0,89,0.00,,,0.00,Wunderground v.1.15,2013-02-23 13:37:00,
2013-02-23 07:43:00,15.1,12.4,29.91,SW,219,4.0,10.0,89,0.00,,,0.00,Wunderground v.1.15,2013-02-23 13:43:00,
2013-02-23 07:49:00,15.0,12.3,29.91,WSW,256,4.0,10.0,89,0.00,,,0.00,Wunderground v.1.15,2013-02-23 13:49:00,
2013-02-23 07:55:00,14.8,12.1,29.91,West,280,4.0,10.0,89,0.00,,,0.00,Wunderground v.1.15,2013-02-23 13:55:00,
2013-02-23 08:02:00,14.7,12.0,29.91,West,263,4.0,10.0,89,0.00,,,0.00,Wunderground v.1.15,2013-02-23 14:02:00,
2013-02-23 08:07:00,14.6,11.9,29.91,WNW,287,3.0,10.0,89,0.00,,,0.00,Wunderground v.1.15,2013-02-23 14:07:00,
2013-02-23 08:13:00,14.5,11.9,29.91,NW,305,3.0,10.0,89,0.00,,,0.00,Wunderground v.1.15,2013-02-23 14:13:00,
2013-02-23 08:19:00,14.5,11.6,29.91,West,280,3.0,10.0,88,0.00,,,0.00,Wunderground v.1.15,2013-02-23 14:19:00,
2013-02-23 08:25:00,14.4,11.5,29.91,WNW,300,2.0,10.0,88,0.00,,,0.00,Wunderground v.1.15,2013-02-23 14:25:00,
2013-02-23 08:31:00,14.5,11.6,29.91,WSW,257,2.0,10.0,88,0.00,,,0.00,Wunderground v.1.15,2013-02-23 14:31:00,
2013-02-23 08:37:00,14.7,11.8,29.91,WNW,287,3.0,10.0,88,0.00,,,0.00,Wunderground v.1.15,2013-02-23 14:37:00,
2013-02-23 08:43:00,15.2,12.0,29.91,NW,318,2.0,10.0,87,0.00,,,0.00,Wunderground v.1.15,2013-02-23 14:43:00,
2013-02-23 08:49:00,15.6,12.4,29.91,West,280,2.0,2.0,87,0.00,,,0.00,Wunderground v.1.15,2013-02-23 14:49:00,
2013-02-23 08:55:00,16.1,12.7,29.91,NW,305,2.0,10.0,86,0.00,,,0.00,Wunderground v.1.15,2013-02-23 14:55:00,
2013-02-23 09:01:00,16.3,12.6,29.91,NW,307,2.0,10.0,85,0.00,,,0.00,Wunderground v.1.15,2013-02-23 15:01:00,
2013-02-23 09:07:00,16.6,12.9,29.91,West,259,2.0,10.0,85,0.00,,,0.00,Wunderground v.1.15,2013-02-23 15:07:00,
2013-02-23 09:13:00,16.8,12.8,29.91,WSW,250,2.0,10.0,84,0.00,,,0.00,Wunderground v.1.15,2013-02-23 15:13:00,
2013-02-23 09:19:00,16.7,12.7,29.91,WNW,295,3.0,3.0,84,0.00,,,0.00,Wunderground v.1.15,2013-02-23 15:19:00,
2013-02-23 09:25:00,16.6,12.3,29.91,West,260,4.0,10.0,83,0.00,,,0.00,Wunderground v.1.15,2013-02-23 15:25:00,
2013-02-23 09:31:00,16.4,12.4,29.91,WNW,293,5.0,10.0,84,0.00,,,0.00,Wunderground v.1.15,2013-02-23 15:31:00,
2013-02-23 09:38:00,16.5,12.2,29.91,WSW,253,3.0,10.0,83,0.00,,,0.00,Wunderground v.1.15,2013-02-23 15:38:00,
2013-02-23 09:43:00,16.6,12.3,29.91,West,273,3.0,10.0,83,0.00,,,0.00,Wunderground v.1.15,2013-02-23 15:43:00,
2013-02-23 09:49:00,16.9,12.6,29.91,WNW,285,2.0,10.0,83,0.00,,,0.00,Wunderground v.1.15,2013-02-23 15:49:00,
2013-02-23 09:55:00,17.1,12.8,29.91,WSW,250,3.0,10.0,83,0.00,,,0.00,Wunderground v.1.15,2013-02-23 15:55:00,
2013-02-23 10:01:00,17.2,12.6,29.91,SW,235,3.0,5.0,82,0.00,,,0.00,Wunderground v.1.15,2013-02-23 16:01:00,
2013-02-23 10:07:00,17.5,12.9,29.91,WSW,251,3.0,10.0,82,0.00,,,0.00,Wunderground v.1.15,2013-02-23 16:07:00,
2013-02-23 10:13:00,18.0,13.4,29.91,WNW,284,2.0,10.0,82,0.00,,,0.00,Wunderground v.1.15,2013-02-23 16:13:00,
2013-02-23 10:19:00,18.3,13.4,29.91,WSW,250,2.0,10.0,81,0.00,,,0.00,Wunderground v.1.15,2013-02-23 16:19:00,
2013-02-23 10:26:00,18.3,13.4,29.91,WNW,290,3.0,10.0,81,0.00,,,0.00,Wunderground v.1.15,2013-02-23 16:26:00,
2013-02-23 10:31:00,18.7,13.8,29.91,West,264,3.0,10.0,81,0.00,,,0.00,Wunderground v.1.15,2013-02-23 16:31:00,
2013-02-23 10:38:00,19.1,14.2,29.91,WSW,256,3.0,10.0,81,0.00,,,0.00,Wunderground v.1.15,2013-02-23 16:38:00,
2013-02-23 10:43:00,19.7,14.2,29.92,WSW,244,3.0,10.0,79,0.00,,,0.00,Wunderground v.1.15,2013-02-23 16:43:00,
2013-02-23 10:49:00,19.9,15.0,29.92,SW,221,3.0,10.0,81,0.00,,,0.00,Wunderground v.1.15,2013-02-23 16:49:00,
2013-02-23 10:55:00,20.2,15.0,29.92,WNW,298,2.0,10.0,80,0.00,,,0.00,Wunderground v.1.15,2013-02-23 16:55:00,
2013-02-23 11:01:00,19.9,14.4,29.92,West,259,3.0,10.0,79,0.00,,,0.00,Wunderground v.1.15,2013-02-23 17:01:00,
2013-02-23 11:07:00,20.0,14.8,29.92,SSW,204,3.0,10.0,80,0.00,,,0.00,Wunderground v.1.15,2013-02-23 17:07:00,
2013-02-23 11:13:00,20.1,14.6,29.92,West,266,3.0,10.0,79,0.00,,,0.00,Wunderground v.1.15,2013-02-23 17:13:00,
2013-02-23 11:19:00,20.6,15.4,29.92,SW,232,3.0,10.0,80,0.00,,,0.00,Wunderground v.1.15,2013-02-23 17:19:00,
2013-02-23 11:26:00,20.9,15.7,29.92,West,266,3.0,10.0,80,0.00,,,0.00,Wunderground v.1.15,2013-02-23 17:26:00,
2013-02-23 11:31:00,21.1,15.6,29.92,West,270,4.0,5.0,79,0.00,,,0.00,Wunderground v.1.15,2013-02-23 17:31:00,
2013-02-23 11:37:00,20.9,15.4,29.92,SW,229,4.0,10.0,79,0.00,,,0.00,Wunderground v.1.15,2013-02-23 17:37:00,
2013-02-23 11:43:00,21.5,16.0,29.92,NW,304,3.0,10.0,79,0.00,,,0.00,Wunderground v.1.15,2013-02-23 17:43:00,
2013-02-23 11:49:00,21.6,16.1,29.92,West,264,3.0,10.0,79,0.00,,,0.00,Wunderground v.1.15,2013-02-23 17:49:00,
2013-02-23 11:55:00,21.5,15.7,29.92,WSW,250,3.0,10.0,78,0.00,,,0.00,Wunderground v.1.15,2013-02-23 17:55:00,
2013-02-23 12:01:00,22.0,16.5,29.92,SW,229,3.0,10.0,79,0.00,,,0.00,Wunderground v.1.15,2013-02-23 18:01:00,
2013-02-23 12:07:00,22.0,16.2,29.91,West,267,3.0,10.0,78,0.00,,,0.00,Wunderground v.1.15,2013-02-23 18:07:00,
2013-02-23 12:13:00,21.6,15.8,29.91,West,274,5.0,10.0,78,0.00,,,0.00,Wunderground v.1.15,2013-02-23 18:13:00,
2013-02-23 12:19:00,21.9,16.4,29.91,WSW,257,4.0,10.0,79,0.00,,,0.00,Wunderground v.1.15,2013-02-23 18:19:00,
2013-02-23 12:25:00,22.5,17.0,29.91,West,271,3.0,10.0,79,0.00,,,0.00,Wunderground v.1.15,2013-02-23 18:25:00,
2013-02-23 12:32:00,23.0,17.2,29.90,WNW,283,2.0,10.0,78,0.00,,,0.00,Wunderground v.1.15,2013-02-23 18:32:00,
2013-02-23 12:37:00,23.1,17.0,29.90,WSW,250,3.0,10.0,77,0.00,,,0.00,Wunderground v.1.15,2013-02-23 18:37:00,
2013-02-23 12:43:00,23.2,17.1,29.90,WSW,256,4.0,10.0,77,0.00,,,0.00,Wunderground v.1.15,2013-02-23 18:43:00,
2013-02-23 12:49:00,23.3,16.9,29.90,West,269,3.0,10.0,76,0.00,,,0.00,Wunderground v.1.15,2013-02-23 18:49:00,
2013-02-23 12:55:00,23.7,17.2,29.90,WSW,250,3.0,10.0,76,0.00,,,0.00,Wunderground v.1.15,2013-02-23 18:55:00,
2013-02-23 13:01:00,23.6,17.1,29.90,West,269,4.0,10.0,76,0.00,,,0.00,Wunderground v.1.15,2013-02-23 19:01:00,
2013-02-23 13:08:00,23.7,17.2,29.90,West,266,4.0,10.0,76,0.00,,,0.00,Wunderground v.1.15,2013-02-23 19:08:00,
2013-02-23 13:13:00,24.1,17.9,29.90,West,265,4.0,10.0,77,0.00,,,0.00,Wunderground v.1.15,2013-02-23 19:13:00,
2013-02-23 13:19:00,24.5,17.7,29.89,SW,224,3.0,10.0,75,0.00,,,0.00,Wunderground v.1.15,2013-02-23 19:19:00,
2013-02-23 13:25:00,24.7,17.9,29.89,NW,315,4.0,10.0,75,0.00,,,0.00,Wunderground v.1.15,2013-02-23 19:25:00,
2013-02-23 13:31:00,25.3,18.5,29.89,West,269,2.0,5.0,75,0.00,,,0.00,Wunderground v.1.15,2013-02-23 19:31:00,
2013-02-23 13:37:00,25.7,17.9,29.89,WSW,257,2.0,10.0,72,0.00,,,0.00,Wunderground v.1.15,2013-02-23 19:37:00,
2013-02-23 13:43:00,25.4,17.6,29.89,WNW,295,3.0,10.0,72,0.00,,,0.00,Wunderground v.1.15,2013-02-23 19:43:00,
2013-02-23 13:49:00,25.4,17.0,29.89,WNW,297,3.0,10.0,70,0.00,,,0.00,Wunderground v.1.15,2013-02-23 19:49:00,
2013-02-23 13:55:00,25.0,16.9,29.89,WNW,285,4.0,10.0,71,0.00,,,0.00,Wunderground v.1.15,2013-02-23 19:55:00,
2013-02-23 14:01:00,25.1,16.7,29.89,WSW,248,4.0,10.0,70,0.00,,,0.00,Wunderground v.1.15,2013-02-23 20:01:00,
2013-02-23 14:07:00,25.0,16.9,29.89,WSW,248,4.0,10.0,71,0.00,,,0.00,Wunderground v.1.15,2013-02-23 20:07:00,
2013-02-23 14:14:00,25.3,17.2,29.89,West,260,3.0,10.0,71,0.00,,,0.00,Wunderground v.1.15,2013-02-23 20:14:00,
2013-02-23 14:19:00,25.4,17.9,29.89,West,263,3.0,10.0,73,0.00,,,0.00,Wunderground v.1.15,2013-02-23 20:19:00,
2013-02-23 14:25:00,25.9,18.1,29.88,WSW,243,2.0,10.0,72,0.00,,,0.00,Wunderground v.1.15,2013-02-23 20:25:00,
2013-02-23 14:31:00,25.9,17.8,29.89,NW,319,3.0,10.0,71,0.00,,,0.00,Wunderground v.1.15,2013-02-23 20:31:00,
2013-02-23 14:37:00,26.1,18.0,29.89,WSW,248,3.0,10.0,71,0.00,,,0.00,Wunderground v.1.15,2013-02-23 20:37:00,
2013-02-23 14:43:00,26.1,18.0,29.89,WSW,240,3.0,10.0,71,0.00,,,0.00,Wunderground v.1.15,2013-02-23 20:43:00,
2013-02-23 14:49:00,26.0,18.5,29.89,WSW,239,4.0,10.0,73,0.00,,,0.00,Wunderground v.1.15,2013-02-23 20:49:00,
2013-02-23 14:55:00,26.0,18.2,29.89,South,188,4.0,10.0,72,0.00,,,0.00,Wunderground v.1.15,2013-02-23 20:55:00,
2013-02-23 15:01:00,25.9,17.8,29.89,West,259,4.0,10.0,71,0.00,,,0.00,Wunderground v.1.15,2013-02-23 21:01:00,
2013-02-23 15:07:00,26.1,18.6,29.89,SW,228,4.0,10.0,73,0.00,,,0.00,Wunderground v.1.15,2013-02-23 21:07:00,
2013-02-23 15:13:00,26.7,19.2,29.89,West,264,3.0,10.0,73,0.00,,,0.00,Wunderground v.1.15,2013-02-23 21:13:00,
2013-02-23 15:19:00,26.3,18.2,29.89,West,262,3.0,10.0,71,0.00,,,0.00,Wunderground v.1.15,2013-02-23 21:19:00,
2013-02-23 15:25:00,26.5,18.7,29.89,SSW,212,3.0,10.0,72,0.00,,,0.00,Wunderground v.1.15,2013-02-23 21:25:00,
2013-02-23 15:31:00,26.1,18.3,29.89,SW,226,3.0,10.0,72,0.00,,,0.00,Wunderground v.1.15,2013-02-23 21:31:00,
2013-02-23 15:37:00,26.2,18.7,29.89,West,266,3.0,10.0,73,0.00,,,0.00,Wunderground v.1.15,2013-02-23 21:37:00,
2013-02-23 15:43:00,26.2,18.7,29.89,WSW,248,2.0,10.0,73,0.00,,,0.00,Wunderground v.1.15,2013-02-23 21:43:00,
2013-02-23 15:49:00,26.3,18.8,29.89,WSW,243,2.0,10.0,73,0.00,,,0.00,Wunderground v.1.15,2013-02-23 21:49:00,
2013-02-23 15:55:00,26.0,18.8,29.89,WSW,245,3.0,10.0,74,0.00,,,0.00,Wunderground v.1.15,2013-02-23 21:55:00,
2013-02-23 16:01:00,26.1,18.9,29.89,WSW,250,2.0,10.0,74,0.00,,,0.00,Wunderground v.1.15,2013-02-23 22:01:00,
2013-02-23 16:07:00,26.2,18.7,29.89,SW,228,2.0,10.0,73,0.00,,,0.00,Wunderground v.1.15,2013-02-23 22:07:00,
2013-02-23 16:13:00,26.1,18.9,29.89,West,266,3.0,10.0,74,0.00,,,0.00,Wunderground v.1.15,2013-02-23 22:13:00,
2013-02-23 16:19:00,26.2,19.0,29.90,WSW,257,3.0,10.0,74,0.00,,,0.00,Wunderground v.1.15,2013-02-23 22:19:00,
2013-02-23 16:25:00,26.2,19.0,29.90,West,272,3.0,10.0,74,0.00,,,0.00,Wunderground v.1.15,2013-02-23 22:25:00,
2013-02-23 16:31:00,26.3,18.8,29.90,SW,215,3.0,10.0,73,0.00,,,0.00,Wunderground v.1.15,2013-02-23 22:31:00,
2013-02-23 16:37:00,26.4,19.2,29.90,WSW,250,3.0,10.0,74,0.00,,,0.00,Wunderground v.1.15,2013-02-23 22:37:00,
2013-02-23 16:43:00,26.1,18.9,29.90,WNW,286,2.0,10.0,74,0.00,,,0.00,Wunderground v.1.15,2013-02-23 22:43:00,
2013-02-23 16:49:00,25.9,19.4,29.90,West,274,3.0,3.0,76,0.00,,,0.00,Wunderground v.1.15,2013-02-23 22:49:00,
2013-02-23 16:55:00,25.7,19.2,29.90,WSW,253,2.0,10.0,76,0.00,,,0.00,Wunderground v.1.15,2013-02-23 22:55:00,
2013-02-23 17:01:00,25.6,19.1,29.90,SW,226,3.0,10.0,76,0.00,,,0.00,Wunderground v.1.15,2013-02-23 23:01:00,
2013-02-23 17:07:00,25.4,18.9,29.90,WSW,253,4.0,10.0,76,0.00,,,0.00,Wunderground v.1.15,2013-02-23 23:07:00,
2013-02-23 17:13:00,25.1,18.9,29.90,West,261,4.0,10.0,77,0.00,,,0.00,Wunderground v.1.15,2013-02-23 23:13:00,
2013-02-23 17:19:00,25.1,18.9,29.90,WSW,252,3.0,3.0,77,0.00,,,0.00,Wunderground v.1.15,2013-02-23 23:19:00,
2013-02-23 17:25:00,25.0,18.8,29.90,SW,228,2.0,10.0,77,0.00,,,0.00,Wunderground v.1.15,2013-02-23 23:25:00,
2013-02-23 17:31:00,24.8,18.6,29.90,WSW,255,2.0,10.0,77,0.00,,,0.00,Wunderground v.1.15,2013-02-23 23:31:00,
2013-02-23 17:37:00,24.5,18.3,29.90,SW,236,2.0,10.0,77,0.00,,,0.00,Wunderground v.1.15,2013-02-23 23:37:00,
2013-02-23 17:43:00,24.0,18.1,29.90,West,259,2.0,10.0,78,0.00,,,0.00,Wunderground v.1.15,2013-02-23 23:43:00,
2013-02-23 17:49:00,23.4,17.8,29.90,WSW,253,1.0,1.0,79,0.00,,,0.00,Wunderground v.1.15,2013-02-23 23:49:00,
2013-02-23 17:55:00,23.0,17.7,29.90,WSW,238,1.0,10.0,80,0.00,,,0.00,Wunderground v.1.15,2013-02-23 23:55:00,
2013-02-23 18:01:00,22.8,17.6,29.90,SW,231,1.0,10.0,80,0.00,,,0.00,Wunderground v.1.15,2013-02-24 00:01:00,
2013-02-23 18:07:00,22.6,17.6,29.90,WSW,242,0.0,10.0,81,0.00,,,0.00,Wunderground v.1.15,2013-02-24 00:07:00,
2013-02-23 18:13:00,22.4,17.5,29.90,SW,228,0.0,10.0,81,0.00,,,0.00,Wunderground v.1.15,2013-02-24 00:13:00,
2013-02-23 18:19:00,21.9,17.2,29.90,SW,228,0.0,10.0,82,0.00,,,0.00,Wunderground v.1.15,2013-02-24 00:19:00,
2013-02-23 18:25:00,21.5,16.9,29.90,SW,228,0.0,10.0,82,0.00,,,0.00,Wunderground v.1.15,2013-02-24 00:25:00,
2013-02-23 18:31:00,20.9,16.5,29.91,SW,228,0.0,10.0,83,0.00,,,0.00,Wunderground v.1.15,2013-02-24 00:31:00,
2013-02-23 18:37:00,20.5,16.7,29.90,SW,228,0.0,10.0,85,0.00,,,0.00,Wunderground v.1.15,2013-02-24 00:37:00,
2013-02-23 18:43:00,20.5,17.0,29.91,SW,228,0.0,10.0,86,0.00,,,0.00,Wunderground v.1.15,2013-02-24 00:43:00,
2013-02-23 18:49:00,20.3,16.5,29.91,SW,228,0.0,10.0,85,0.00,,,0.00,Wunderground v.1.15,2013-02-24 00:49:00,
2013-02-23 18:55:00,20.0,16.5,29.91,SW,228,0.0,10.0,86,0.00,,,0.00,Wunderground v.1.15,2013-02-24 00:55:00,
2013-02-23 19:01:00,19.8,16.3,29.92,SW,228,0.0,10.0,86,0.00,,,0.00,Wunderground v.1.15,2013-02-24 01:01:00,
2013-02-23 19:07:00,19.4,15.9,29.92,SW,228,0.0,10.0,86,0.00,,,0.00,Wunderground v.1.15,2013-02-24 01:07:00,
2013-02-23 19:13:00,19.0,15.8,29.91,SW,228,0.0,10.0,87,0.00,,,0.00,Wunderground v.1.15,2013-02-24 01:13:00,
2013-02-23 19:19:00,18.9,15.9,29.91,SW,228,0.0,10.0,88,0.00,,,0.00,Wunderground v.1.15,2013-02-24 01:19:00,
2013-02-23 19:25:00,18.9,15.9,29.91,SW,228,0.0,10.0,88,0.00,,,0.00,Wunderground v.1.15,2013-02-24 01:25:00,
2013-02-23 19:31:00,18.5,15.5,29.92,SW,228,0.0,10.0,88,0.00,,,0.00,Wunderground v.1.15,2013-02-24 01:31:00,
2013-02-23 19:37:00,18.2,15.5,29.92,SW,228,0.0,10.0,89,0.00,,,0.00,Wunderground v.1.15,2013-02-24 01:37:00,
2013-02-23 19:43:00,18.3,15.9,29.91,SW,228,0.0,10.0,90,0.00,,,0.00,Wunderground v.1.15,2013-02-24 01:43:00,
2013-02-23 19:49:00,18.1,15.4,29.92,SW,228,0.0,10.0,89,0.00,,,0.00,Wunderground v.1.15,2013-02-24 01:49:00,
2013-02-23 19:55:00,18.0,15.6,29.91,SSE,149,0.0,10.0,90,0.00,,,0.00,Wunderground v.1.15,2013-02-24 01:55:00,
2013-02-23 20:01:00,18.1,15.7,29.91,SSE,150,0.0,10.0,90,0.00,,,0.00,Wunderground v.1.15,2013-02-24 02:01:00,
2013-02-23 20:07:00,18.1,15.4,29.92,SSE,149,0.0,10.0,89,0.00,,,0.00,Wunderground v.1.15,2013-02-24 02:07:00,
2013-02-23 20:13:00,18.1,15.7,29.92,SSE,149,0.0,10.0,90,0.00,,,0.00,Wunderground v.1.15,2013-02-24 02:13:00,
2013-02-23 20:19:00,18.0,15.6,29.92,SSE,150,0.0,10.0,90,0.00,,,0.00,Wunderground v.1.15,2013-02-24 02:19:00,
2013-02-23 20:25:00,17.8,15.4,29.92,SSE,150,0.0,10.0,90,0.00,,,0.00,Wunderground v.1.15,2013-02-24 02:25:00,
2013-02-23 20:31:00,17.5,14.8,29.92,SSE,149,0.0,10.0,89,0.00,,,0.00,Wunderground v.1.15,2013-02-24 02:31:00,
2013-02-23 20:37:00,17.1,14.7,29.92,SSE,150,0.0,10.0,90,0.00,,,0.00,Wunderground v.1.15,2013-02-24 02:37:00,
2013-02-23 20:43:00,16.6,14.2,29.92,SSE,150,0.0,10.0,90,0.00,,,0.00,Wunderground v.1.15,2013-02-24 02:43:00,
2013-02-23 20:49:00,16.3,13.9,29.92,SSE,150,0.0,10.0,90,0.00,,,0.00,Wunderground v.1.15,2013-02-24 02:49:00,
2013-02-23 20:55:00,16.2,14.0,29.93,SSE,150,0.0,10.0,91,0.00,,,0.00,Wunderground v.1.15,2013-02-24 02:55:00,
2013-02-23 21:01:00,16.1,13.9,29.93,SSE,149,0.0,10.0,91,0.00,,,0.00,Wunderground v.1.15,2013-02-24 03:01:00,
2013-02-23 21:07:00,16.0,14.1,29.93,SSE,150,0.0,10.0,92,0.00,,,0.00,Wunderground v.1.15,2013-02-24 03:07:00,
2013-02-23 21:13:00,15.9,14.0,29.93,SSE,150,0.0,10.0,92,0.00,,,0.00,Wunderground v.1.15,2013-02-24 03:13:00,
2013-02-23 21:19:00,16.2,14.3,29.93,SSE,149,0.0,10.0,92,0.00,,,0.00,Wunderground v.1.15,2013-02-24 03:19:00,
2013-02-23 21:25:00,15.8,13.9,29.93,SSE,150,0.0,10.0,92,0.00,,,0.00,Wunderground v.1.15,2013-02-24 03:25:00,
2013-02-23 21:31:00,15.5,13.6,29.93,SSE,150,0.0,10.0,92,0.00,,,0.00,Wunderground v.1.15,2013-02-24 03:31:00,
2013-02-23 21:37:00,15.3,13.4,29.94,SSE,150,0.0,10.0,92,0.00,,,0.00,Wunderground v.1.15,2013-02-24 03:37:00,
2013-02-23 21:43:00,15.1,13.2,29.94,SSE,149,0.0,10.0,92,0.00,,,0.00,Wunderground v.1.15,2013-02-24 03:43:00,
2013-02-23 21:49:00,14.9,13.2,29.94,SSE,150,0.0,10.0,93,0.00,,,0.00,Wunderground v.1.15,2013-02-24 03:49:00,
2013-02-23 21:55:00,14.6,12.9,29.94,SSE,150,0.0,10.0,93,0.00,,,0.00,Wunderground v.1.15,2013-02-24 03:55:00,
2013-02-23 22:01:00,14.3,12.6,29.94,SSE,149,0.0,10.0,93,0.00,,,0.00,Wunderground v.1.15,2013-02-24 04:01:00,
2013-02-23 22:09:00,14.7,13.3,29.94,SSE,149,0.0,10.0,94,0.00,,,0.00,Wunderground v.1.15,2013-02-24 04:09:00,
2013-02-23 22:15:00,14.7,13.0,29.94,SSE,150,0.0,10.0,93,0.00,,,0.00,Wunderground v.1.15,2013-02-24 04:15:00,
2013-02-23 22:21:00,14.6,12.9,29.94,SSE,149,0.0,10.0,93,0.00,,,0.00,Wunderground v.1.15,2013-02-24 04:21:00,
2013-02-23 22:27:00,14.7,13.3,29.94,SSE,150,0.0,10.0,94,0.00,,,0.00,Wunderground v.1.15,2013-02-24 04:27:00,
2013-02-23 22:33:00,14.8,13.4,29.94,SSE,149,0.0,10.0,94,0.00,,,0.00,Wunderground v.1.15,2013-02-24 04:33:00,
2013-02-23 22:39:00,14.8,13.1,29.95,SSE,150,0.0,10.0,93,0.00,,,0.00,Wunderground v.1.15,2013-02-24 04:39:00,
2013-02-23 22:45:00,14.9,13.2,29.95,SSE,150,0.0,10.0,93,0.00,,,0.00,Wunderground v.1.15,2013-02-24 04:45:00,
2013-02-23 22:51:00,14.8,12.9,29.95,SSE,150,0.0,10.0,92,0.00,,,0.00,Wunderground v.1.15,2013-02-24 04:51:00,
2013-02-23 22:57:00,14.6,12.7,29.95,SSE,149,0.0,10.0,92,0.00,,,0.00,Wunderground v.1.15,2013-02-24 04:57:00,
2013-02-23 23:01:00,14.5,12.6,29.95,SSE,149,0.0,10.0,92,0.00,,,0.00,Wunderground v.1.15,2013-02-24 05:01:00,
2013-02-23 23:05:00,14.3,12.4,29.95,SSE,150,0.0,10.0,92,0.00,,,0.00,Wunderground v.1.15,2013-02-24 05:05:00,
2013-02-23 23:11:00,14.1,12.2,29.95,SSE,149,0.0,10.0,92,0.00,,,0.00,Wunderground v.1.15,2013-02-24 05:11:00,
2013-02-23 23:17:00,13.8,11.9,29.95,SSE,149,0.0,10.0,92,0.00,,,0.00,Wunderground v.1.15,2013-02-24 05:17:00,
2013-02-23 23:23:00,13.4,11.5,29.95,SSE,149,0.0,10.0,92,0.00,,,0.00,Wunderground v.1.15,2013-02-24 05:23:00,
2013-02-23 23:29:00,13.2,11.3,29.95,SSE,149,0.0,10.0,92,0.00,,,0.00,Wunderground v.1.15,2013-02-24 05:29:00,
2013-02-23 23:35:00,13.3,11.7,29.95,SSE,149,0.0,10.0,93,0.00,,,0.00,Wunderground v.1.15,2013-02-24 05:35:00,
2013-02-23 23:41:00,13.6,12.2,29.95,SE,146,0.0,10.0,94,0.00,,,0.00,Wunderground v.1.15,2013-02-24 05:41:00,
2013-02-23 23:47:00,13.7,12.3,29.95,SE,146,0.0,10.0,94,0.00,,,0.00,Wunderground v.1.15,2013-02-24 05:47:00,
2013-02-23 23:53:00,13.7,12.1,29.95,SE,146,0.0,10.0,93,0.00,,,0.00,Wunderground v.1.15,2013-02-24 05:53:00,